sensor_id;sensor_type;location;lat;lon;timestamp;pressure;altitude;pressure_sealevel;temperature;humidity
67109;BME280;54027;50.786;7.058;2023-04-27T00:00:47;101352.75;;;8.13;61.83
67109;BME280;54027;50.786;7.058;2023-04-27T00:03:13;101354.44;;;8.12;61.63
67109;BME280;54027;50.786;7.058;2023-04-27T00:05:38;101357.91;;;8.13;61.38
67109;BME280;54027;50.786;7.058;2023-04-27T00:08:07;101367.31;;;8.14;62.14
67109;BME280;54027;50.786;7.058;2023-04-27T00:10:33;101365.63;;;8.13;61.63
67109;BME280;54027;50.786;7.058;2023-04-27T00:12:58;101370.78;;;8.13;61.65
67109;BME280;54027;50.786;7.058;2023-04-27T00:15:24;101362.22;;;8.17;61.72
67109;BME280;54027;50.786;7.058;2023-04-27T00:17:49;101364.81;;;8.18;62.57
67109;BME280;54027;50.786;7.058;2023-04-27T00:20:15;101356.25;;;8.21;61.58
67109;BME280;54027;50.786;7.058;2023-04-27T00:22:40;101357.13;;;8.21;61.56
67109;BME280;54027;50.786;7.058;2023-04-27T00:25:06;101367.41;;;8.20;62.19
67109;BME280;54027;50.786;7.058;2023-04-27T00:27:32;101376.00;;;8.19;61.80
67109;BME280;54027;50.786;7.058;2023-04-27T00:29:57;101363.09;;;8.17;61.60
67109;BME280;54027;50.786;7.058;2023-04-27T00:32:23;101376.78;;;8.15;62.32
67109;BME280;54027;50.786;7.058;2023-04-27T00:34:48;101404.22;;;8.11;63.44
67109;BME280;54027;50.786;7.058;2023-04-27T00:37:13;101382.78;;;8.12;62.50
67109;BME280;54027;50.786;7.058;2023-04-27T00:39:39;101406.78;;;8.11;63.77
67109;BME280;54027;50.786;7.058;2023-04-27T00:42:04;101408.50;;;8.11;63.37
67109;BME280;54027;50.786;7.058;2023-04-27T00:44:30;101417.09;;;8.11;64.35
67109;BME280;54027;50.786;7.058;2023-04-27T00:46:57;101405.03;;;8.10;63.97
67109;BME280;54027;50.786;7.058;2023-04-27T00:49:23;101398.19;;;8.11;62.85
67109;BME280;54027;50.786;7.058;2023-04-27T00:51:49;101386.22;;;8.13;62.80
67109;BME280;54027;50.786;7.058;2023-04-27T00:54:18;101373.34;;;8.14;62.19
67109;BME280;54027;50.786;7.058;2023-04-27T00:56:44;101359.63;;;8.15;61.37
67109;BME280;54027;50.786;7.058;2023-04-27T00:59:12;101350.16;;;8.14;61.17
67109;BME280;54027;50.786;7.058;2023-04-27T01:01:37;101341.59;;;8.14;60.77
67109;BME280;54027;50.786;7.058;2023-04-27T01:04:02;101332.16;;;8.13;60.79
67109;BME280;54027;50.786;7.058;2023-04-27T01:06:28;101349.28;;;8.11;61.32
67109;BME280;54027;50.786;7.058;2023-04-27T01:08:54;101364.69;;;8.08;61.62
67109;BME280;54027;50.786;7.058;2023-04-27T01:11:20;101393.81;;;8.02;63.31
67109;BME280;54027;50.786;7.058;2023-04-27T01:13:45;101413.47;;;7.97;64.63
67109;BME280;54027;50.786;7.058;2023-04-27T01:16:11;101426.19;;;7.86;65.75
67109;BME280;54027;50.786;7.058;2023-04-27T01:18:36;101430.44;;;7.81;65.99
67109;BME280;54027;50.786;7.058;2023-04-27T01:21:02;101440.69;;;7.77;65.80
67109;BME280;54027;50.786;7.058;2023-04-27T01:23:27;101427.69;;;7.69;65.67
67109;BME280;54027;50.786;7.058;2023-04-27T01:25:52;101414.81;;;7.68;64.93
67109;BME280;54027;50.786;7.058;2023-04-27T01:28:18;101395.06;;;7.67;64.67
67109;BME280;54027;50.786;7.058;2023-04-27T01:30:43;101400.22;;;7.67;64.15
67109;BME280;54027;50.786;7.058;2023-04-27T01:33:09;101395.94;;;7.67;64.12
67109;BME280;54027;50.786;7.058;2023-04-27T01:35:35;101401.97;;;7.69;64.17
67109;BME280;54027;50.786;7.058;2023-04-27T01:38:01;101403.75;;;7.73;64.35
67109;BME280;54027;50.786;7.058;2023-04-27T01:40:26;101411.50;;;7.76;64.26
67109;BME280;54027;50.786;7.058;2023-04-27T01:42:52;101419.25;;;7.79;64.92
67109;BME280;54027;50.786;7.058;2023-04-27T01:45:17;101405.56;;;7.82;64.96
67109;BME280;54027;50.786;7.058;2023-04-27T01:47:42;101404.72;;;7.84;65.51
67109;BME280;54027;50.786;7.058;2023-04-27T01:50:08;101404.78;;;7.86;64.61
67109;BME280;54027;50.786;7.058;2023-04-27T01:52:33;101407.34;;;7.86;64.56
67109;BME280;54027;50.786;7.058;2023-04-27T01:54:59;101412.44;;;7.83;64.75
67109;BME280;54027;50.786;7.058;2023-04-27T01:57:24;101426.94;;;7.78;65.09
67109;BME280;54027;50.786;7.058;2023-04-27T01:59:50;101428.66;;;7.76;65.06
67109;BME280;54027;50.786;7.058;2023-04-27T02:02:16;101416.59;;;7.75;64.99
67109;BME280;54027;50.786;7.058;2023-04-27T02:04:41;101406.28;;;7.72;64.60
67109;BME280;54027;50.786;7.058;2023-04-27T02:07:07;101407.06;;;7.65;64.59
67109;BME280;54027;50.786;7.058;2023-04-27T02:09:33;101416.34;;;7.55;65.38
67109;BME280;54027;50.786;7.058;2023-04-27T02:11:58;101408.53;;;7.48;65.59
67109;BME280;54027;50.786;7.058;2023-04-27T02:14:23;101419.59;;;7.43;65.70
67109;BME280;54027;50.786;7.058;2023-04-27T02:16:49;101417.00;;;7.40;65.98
67109;BME280;54027;50.786;7.058;2023-04-27T02:19:14;101422.09;;;7.37;65.68
67109;BME280;54027;50.786;7.058;2023-04-27T02:21:43;101437.44;;;7.33;66.38
67109;BME280;54027;50.786;7.058;2023-04-27T02:24:08;101467.34;;;7.26;68.02
67109;BME280;54027;50.786;7.058;2023-04-27T02:26:34;101475.84;;;7.21;68.80
67109;BME280;54027;50.786;7.058;2023-04-27T03:22:45;101425.84;;;7.07;68.68
67109;BME280;54027;50.786;7.058;2023-04-27T03:25:11;101430.13;;;7.06;68.53
67109;BME280;54027;50.786;7.058;2023-04-27T03:27:37;101426.66;;;7.04;68.31
67109;BME280;54027;50.786;7.058;2023-04-27T03:30:02;101428.38;;;7.04;68.29
67109;BME280;54027;50.786;7.058;2023-04-27T03:32:29;101425.78;;;7.02;68.48
67109;BME280;54027;50.786;7.058;2023-04-27T03:34:54;101431.75;;;7.01;68.47
67109;BME280;54027;50.786;7.058;2023-04-27T03:37:20;101428.31;;;7.01;68.88
67109;BME280;54027;50.786;7.058;2023-04-27T03:39:46;101436.84;;;6.98;68.65
67109;BME280;54027;50.786;7.058;2023-04-27T03:42:11;101429.94;;;6.96;68.92
67109;BME280;54027;50.786;7.058;2023-04-27T03:44:37;101427.38;;;6.96;69.30
67109;BME280;54027;50.786;7.058;2023-04-27T03:47:02;101435.91;;;6.95;69.11
67109;BME280;54027;50.786;7.058;2023-04-27T03:49:33;101430.72;;;6.91;69.47
67109;BME280;54027;50.786;7.058;2023-04-27T03:51:58;101438.38;;;6.88;69.83
67109;BME280;54027;50.786;7.058;2023-04-27T03:54:24;101438.31;;;6.84;69.73
67109;BME280;54027;50.786;7.058;2023-04-27T03:56:49;101440.84;;;6.82;69.73
67109;BME280;54027;50.786;7.058;2023-04-27T03:59:15;101445.97;;;6.81;69.64
67109;BME280;54027;50.786;7.058;2023-04-27T04:01:40;101437.34;;;6.77;69.36
67109;BME280;54027;50.786;7.058;2023-04-27T04:04:05;101439.91;;;6.77;69.54
67109;BME280;54027;50.786;7.058;2023-04-27T04:06:31;101452.69;;;6.74;70.50
67109;BME280;54027;50.786;7.058;2023-04-27T04:08:57;101458.66;;;6.72;70.40
67109;BME280;54027;50.786;7.058;2023-04-27T04:11:22;101468.91;;;6.70;70.60
67109;BME280;54027;50.786;7.058;2023-04-27T04:13:48;101464.59;;;6.69;71.47
67109;BME280;54027;50.786;7.058;2023-04-27T04:16:13;101474.00;;;6.67;72.12
67109;BME280;54027;50.786;7.058;2023-04-27T04:18:38;101473.13;;;6.67;71.50
67109;BME280;54027;50.786;7.058;2023-04-27T04:21:04;101467.94;;;6.64;71.39
67109;BME280;54027;50.786;7.058;2023-04-27T04:23:29;101466.22;;;6.64;71.80
67109;BME280;54027;50.786;7.058;2023-04-27T04:25:56;101461.06;;;6.63;71.67
67109;BME280;54027;50.786;7.058;2023-04-27T04:28:22;101467.00;;;6.62;71.80
67109;BME280;54027;50.786;7.058;2023-04-27T04:30:48;101456.72;;;6.60;71.19
67109;BME280;54027;50.786;7.058;2023-04-27T04:33:14;101445.53;;;6.57;70.48
67109;BME280;54027;50.786;7.058;2023-04-27T04:35:39;101457.50;;;6.56;71.07
67109;BME280;54027;50.786;7.058;2023-04-27T04:38:10;101457.44;;;6.53;71.29
67109;BME280;54027;50.786;7.058;2023-04-27T04:40:39;101461.69;;;6.51;71.24
67109;BME280;54027;50.786;7.058;2023-04-27T04:43:05;101457.38;;;6.49;71.01
67109;BME280;54027;50.786;7.058;2023-04-27T04:45:31;101458.22;;;6.49;71.07
67109;BME280;54027;50.786;7.058;2023-04-27T04:47:57;101457.38;;;6.50;70.68
67109;BME280;54027;50.786;7.058;2023-04-27T04:50:22;101446.34;;;6.54;69.92
67109;BME280;54027;50.786;7.058;2023-04-27T04:52:48;101443.81;;;6.57;69.59
67109;BME280;54027;50.786;7.058;2023-04-27T04:55:14;101443.81;;;6.57;69.63
67109;BME280;54027;50.786;7.058;2023-04-27T04:57:39;101449.03;;;6.60;69.63
67109;BME280;54027;50.786;7.058;2023-04-27T05:00:05;101433.69;;;6.65;68.99
67109;BME280;54027;50.786;7.058;2023-04-27T05:02:35;101440.59;;;6.67;69.23
67109;BME280;54027;50.786;7.058;2023-04-27T05:05:00;101435.53;;;6.70;68.72
67109;BME280;54027;50.786;7.058;2023-04-27T05:07:26;101441.56;;;6.74;68.92
67109;BME280;54027;50.786;7.058;2023-04-27T05:09:51;101445.06;;;6.77;68.69
67109;BME280;54027;50.786;7.058;2023-04-27T05:12:16;101439.19;;;6.84;68.36
67109;BME280;54027;50.786;7.058;2023-04-27T05:14:42;101445.31;;;6.91;68.80
67109;BME280;54027;50.786;7.058;2023-04-27T05:17:08;101447.13;;;6.97;68.65
67109;BME280;54027;50.786;7.058;2023-04-27T05:19:33;101438.59;;;7.01;67.63
67109;BME280;54027;50.786;7.058;2023-04-27T05:21:59;101433.44;;;6.99;67.49
67109;BME280;54027;50.786;7.058;2023-04-27T05:24:25;101441.16;;;6.99;67.96
67109;BME280;54027;50.786;7.058;2023-04-27T05:26:50;101446.28;;;6.99;68.11
67109;BME280;54027;50.786;7.058;2023-04-27T05:29:16;101450.56;;;6.99;68.06
67109;BME280;54027;50.786;7.058;2023-04-27T05:31:41;101450.66;;;7.05;67.91
67109;BME280;54027;50.786;7.058;2023-04-27T05:34:07;101451.53;;;7.05;67.68
67109;BME280;54027;50.786;7.058;2023-04-27T05:36:34;101472.13;;;7.07;68.55
67109;BME280;54027;50.786;7.058;2023-04-27T05:39:00;101460.22;;;7.12;68.15
67109;BME280;54027;50.786;7.058;2023-04-27T05:41:25;101468.03;;;7.16;68.11
67109;BME280;54027;50.786;7.058;2023-04-27T05:43:51;101465.50;;;7.19;67.75
67109;BME280;54027;50.786;7.058;2023-04-27T05:46:17;101467.94;;;7.12;68.03
67109;BME280;54027;50.786;7.058;2023-04-27T05:48:43;101467.13;;;7.14;67.64
67109;BME280;54027;50.786;7.058;2023-04-27T05:51:08;101466.19;;;7.11;67.59
67109;BME280;54027;50.786;7.058;2023-04-27T05:53:34;101468.00;;;7.15;67.28
67109;BME280;54027;50.786;7.058;2023-04-27T05:55:59;101464.63;;;7.19;67.32
67109;BME280;54027;50.786;7.058;2023-04-27T05:58:28;101469.00;;;7.24;67.06
67109;BME280;54027;50.786;7.058;2023-04-27T06:00:53;101472.47;;;7.25;67.24
67109;BME280;54027;50.786;7.058;2023-04-27T06:03:19;101466.53;;;7.30;66.96
67109;BME280;54027;50.786;7.058;2023-04-27T06:05:44;101456.28;;;7.32;66.66
67109;BME280;54027;50.786;7.058;2023-04-27T06:08:10;101458.88;;;7.33;66.61
67109;BME280;54027;50.786;7.058;2023-04-27T06:10:37;101450.19;;;7.27;66.44
67109;BME280;54027;50.786;7.058;2023-04-27T06:13:03;101467.31;;;7.25;67.01
67109;BME280;54027;50.786;7.058;2023-04-27T06:15:28;101467.31;;;7.25;67.20
67109;BME280;54027;50.786;7.058;2023-04-27T06:17:54;101467.44;;;7.32;66.57
67109;BME280;54027;50.786;7.058;2023-04-27T06:20:19;101465.63;;;7.27;66.62
67109;BME280;54027;50.786;7.058;2023-04-27T06:22:45;101476.88;;;7.32;66.71
67109;BME280;54027;50.786;7.058;2023-04-27T06:25:11;101488.13;;;7.40;67.59
67109;BME280;54027;50.786;7.058;2023-04-27T06:27:36;101495.06;;;7.45;67.78
67109;BME280;54027;50.786;7.058;2023-04-27T06:30:02;101484.06;;;7.53;67.36
67109;BME280;54027;50.786;7.058;2023-04-27T06:32:27;101478.13;;;7.58;67.13
67109;BME280;54027;50.786;7.058;2023-04-27T06:34:53;101478.28;;;7.69;66.70
67109;BME280;54027;50.786;7.058;2023-04-27T06:37:18;101482.69;;;7.77;66.86
67109;BME280;54027;50.786;7.058;2023-04-27T06:39:43;101474.31;;;7.89;66.21
67109;BME280;54027;50.786;7.058;2023-04-27T06:42:09;101463.25;;;7.99;65.80
67109;BME280;54027;50.786;7.058;2023-04-27T06:44:35;101435.84;;;8.02;64.77
67109;BME280;54027;50.786;7.058;2023-04-27T06:47:01;101450.59;;;8.13;65.03
67109;BME280;54027;50.786;7.058;2023-04-27T06:49:26;101428.25;;;8.13;64.26
67109;BME280;54027;50.786;7.058;2023-04-27T06:51:51;101418.97;;;8.24;63.52
67109;BME280;54027;50.786;7.058;2023-04-27T06:54:17;101410.38;;;8.24;62.34
67109;BME280;54027;50.786;7.058;2023-04-27T06:56:42;101406.13;;;8.29;62.65
67109;BME280;54027;50.786;7.058;2023-04-27T06:59:09;101404.59;;;8.46;62.00
67109;BME280;54027;50.786;7.058;2023-04-27T07:01:35;101392.53;;;8.43;62.09
67109;BME280;54027;50.786;7.058;2023-04-27T07:04:02;101405.53;;;8.52;61.95
67109;BME280;54027;50.786;7.058;2023-04-27T07:06:28;101376.34;;;8.55;61.30
67109;BME280;54027;50.786;7.058;2023-04-27T07:08:53;101378.13;;;8.64;61.10
67109;BME280;54027;50.786;7.058;2023-04-27T07:11:19;101377.41;;;8.77;61.38
67109;BME280;54027;50.786;7.058;2023-04-27T07:13:44;101396.47;;;8.95;61.06
67109;BME280;54027;50.786;7.058;2023-04-27T07:16:10;101377.66;;;9.07;61.29
67109;BME280;54027;50.786;7.058;2023-04-27T07:18:35;101373.47;;;9.21;60.37
67109;BME280;54027;50.786;7.058;2023-04-27T07:21:01;101368.41;;;9.38;60.18
67109;BME280;54027;50.786;7.058;2023-04-27T07:23:27;101353.81;;;9.40;59.52
67109;BME280;54027;50.786;7.058;2023-04-27T07:25:52;101366.75;;;9.50;59.76
67109;BME280;54027;50.786;7.058;2023-04-27T07:28:18;101347.78;;;9.42;59.01
67109;BME280;54027;50.786;7.058;2023-04-27T07:30:44;101347.81;;;9.50;59.13
67109;BME280;54027;50.786;7.058;2023-04-27T07:33:10;101350.53;;;9.63;59.04
67109;BME280;54027;50.786;7.058;2023-04-27T07:35:35;101342.81;;;9.74;58.22
67109;BME280;54027;50.786;7.058;2023-04-27T07:38:01;101366.97;;;9.87;59.21
67109;BME280;54027;50.786;7.058;2023-04-27T07:40:28;101343.75;;;9.94;58.12
67109;BME280;54027;50.786;7.058;2023-04-27T07:42:53;101334.28;;;9.93;57.88
67109;BME280;54027;50.786;7.058;2023-04-27T07:45:19;101333.47;;;10.05;57.28
67109;BME280;54027;50.786;7.058;2023-04-27T07:47:45;101360.19;;;10.17;58.17
67109;BME280;54027;50.786;7.058;2023-04-27T07:50:11;101336.09;;;10.26;57.29
67109;BME280;54027;50.786;7.058;2023-04-27T07:52:41;101320.59;;;10.29;56.68
67109;BME280;54027;50.786;7.058;2023-04-27T07:55:07;101323.19;;;10.34;56.99
67109;BME280;54027;50.786;7.058;2023-04-27T07:57:32;101325.75;;;10.21;55.99
67109;BME280;54027;50.786;7.058;2023-04-27T07:59:58;101301.63;;;10.15;56.01
67109;BME280;54027;50.786;7.058;2023-04-27T08:02:25;101316.28;;;10.36;56.54
67109;BME280;54027;50.786;7.058;2023-04-27T08:04:51;101292.19;;;10.29;54.72
67109;BME280;54027;50.786;7.058;2023-04-27T08:07:16;101301.69;;;10.44;55.41
67109;BME280;54027;50.786;7.058;2023-04-27T08:09:42;101305.09;;;10.43;55.76
67109;BME280;54027;50.786;7.058;2023-04-27T08:12:07;101298.22;;;10.45;55.09
67109;BME280;54027;50.786;7.058;2023-04-27T08:14:34;101299.09;;;10.59;54.59
67109;BME280;54027;50.786;7.058;2023-04-27T08:17:00;101296.50;;;10.83;54.37
67109;BME280;54027;50.786;7.058;2023-04-27T08:19:25;101274.03;;;10.99;52.94
67109;BME280;54027;50.786;7.058;2023-04-27T08:21:50;101261.09;;;11.09;52.75
67109;BME280;54027;50.786;7.058;2023-04-27T08:24:16;101262.81;;;11.15;52.56
67109;BME280;54027;50.786;7.058;2023-04-27T08:26:41;101252.47;;;11.07;51.60
67109;BME280;54027;50.786;7.058;2023-04-27T08:29:07;101247.25;;;11.30;52.25
67109;BME280;54027;50.786;7.058;2023-04-27T08:31:32;101257.53;;;11.42;52.92
67109;BME280;54027;50.786;7.058;2023-04-27T08:33:57;101250.63;;;11.53;51.60
67109;BME280;54027;50.786;7.058;2023-04-27T08:36:23;101254.03;;;11.63;52.52
67109;BME280;54027;50.786;7.058;2023-04-27T08:38:52;101233.38;;;11.51;51.45
67109;BME280;54027;50.786;7.058;2023-04-27T08:41:21;101237.69;;;11.46;50.58
67109;BME280;54027;50.786;7.058;2023-04-27T08:43:48;101218.75;;;11.36;50.41
67109;BME280;54027;50.786;7.058;2023-04-27T08:46:22;101227.34;;;11.47;50.06
67109;BME280;54027;50.786;7.058;2023-04-27T08:48:49;101211.81;;;11.50;49.40
67109;BME280;54027;50.786;7.058;2023-04-27T08:51:18;101219.47;;;11.68;50.52
67109;BME280;54027;50.786;7.058;2023-04-27T08:53:49;101210.84;;;11.65;49.01
67109;BME280;54027;50.786;7.058;2023-04-27T08:56:19;101211.72;;;11.64;49.64
67109;BME280;54027;50.786;7.058;2023-04-27T08:58:44;101217.78;;;11.63;49.60
67109;BME280;54027;50.786;7.058;2023-04-27T09:01:10;101209.94;;;11.73;48.84
67109;BME280;54027;50.786;7.058;2023-04-27T09:03:36;101237.47;;;11.89;50.12
67109;BME280;54027;50.786;7.058;2023-04-27T09:06:03;101202.91;;;11.92;48.50
67109;BME280;54027;50.786;7.058;2023-04-27T09:08:46;101201.19;;;11.96;48.56
67109;BME280;54027;50.786;7.058;2023-04-27T09:11:13;101201.88;;;12.14;48.01
67109;BME280;54027;50.786;7.058;2023-04-27T09:13:40;101215.53;;;12.37;48.96
67109;BME280;54027;50.786;7.058;2023-04-27T09:16:06;101186.78;;;12.59;47.14
67109;BME280;54027;50.786;7.058;2023-04-27T09:18:35;101177.09;;;12.79;47.13
67109;BME280;54027;50.786;7.058;2023-04-27T09:21:02;101175.13;;;13.02;46.89
67109;BME280;54027;50.786;7.058;2023-04-27T09:23:35;101130.97;;;13.04;44.08
67109;BME280;54027;50.786;7.058;2023-04-27T09:26:04;101162.91;;;13.12;46.09
67109;BME280;54027;50.786;7.058;2023-04-27T09:28:33;101143.84;;;13.13;44.04
67109;BME280;54027;50.786;7.058;2023-04-27T09:31:01;101174.00;;;13.23;45.76
67109;BME280;54027;50.786;7.058;2023-04-27T09:35:57;101152.97;;;13.42;45.01
67109;BME280;54027;50.786;7.058;2023-04-27T09:38:23;101164.59;;;13.75;45.17
67109;BME280;54027;50.786;7.058;2023-04-27T09:40:50;101132.66;;;13.69;43.34
67109;BME280;54027;50.786;7.058;2023-04-27T09:43:15;101136.88;;;13.76;44.22
67109;BME280;54027;50.786;7.058;2023-04-27T09:45:41;101132.31;;;13.35;43.13
67109;BME280;54027;50.786;7.058;2023-04-27T09:48:08;101141.09;;;13.26;43.31
67109;BME280;54027;50.786;7.058;2023-04-27T09:50:41;101127.34;;;13.17;43.24
67109;BME280;54027;50.786;7.058;2023-04-27T09:53:12;101146.19;;;13.32;44.08
67109;BME280;54027;50.786;7.058;2023-04-27T09:55:58;101119.44;;;13.24;42.61
67109;BME280;54027;50.786;7.058;2023-04-27T10:01:42;101119.50;;;13.79;42.57
67109;BME280;54027;50.786;7.058;2023-04-27T10:07:10;101095.28;;;13.77;40.79
67109;BME280;54027;50.786;7.058;2023-04-27T10:14:56;101109.88;;;13.86;40.95
67109;BME280;54027;50.786;7.058;2023-04-27T10:17:34;101104.66;;;13.89;40.91
67109;BME280;54027;50.786;7.058;2023-04-27T10:22:47;101093.25;;;14.45;41.31
67109;BME280;54027;50.786;7.058;2023-04-27T10:25:22;101105.00;;;14.65;41.37
67109;BME280;54027;50.786;7.058;2023-04-27T10:30:17;101094.28;;;15.20;41.32
67109;BME280;54027;50.786;7.058;2023-04-27T10:33:07;101075.22;;;14.80;39.63
67109;BME280;54027;50.786;7.058;2023-04-27T10:35:52;101077.19;;;14.68;40.70
67109;BME280;54027;50.786;7.058;2023-04-27T10:38:20;101096.47;;;14.57;41.20
67109;BME280;54027;50.786;7.058;2023-04-27T10:40:58;101107.53;;;14.21;42.14
67109;BME280;54027;50.786;7.058;2023-04-27T10:43:30;101109.34;;;14.65;42.22
67109;BME280;54027;50.786;7.058;2023-04-27T10:46:13;101099.25;;;14.91;41.20
67109;BME280;54027;50.786;7.058;2023-04-27T10:48:40;101105.06;;;15.04;42.04
67109;BME280;54027;50.786;7.058;2023-04-27T10:51:06;101060.16;;;14.94;39.53
67109;BME280;54027;50.786;7.058;2023-04-27T10:53:35;101033.78;;;15.09;38.47
67109;BME280;54027;50.786;7.058;2023-04-27T10:56:02;101046.00;;;15.06;38.92
67109;BME280;54027;50.786;7.058;2023-04-27T10:58:33;101049.59;;;15.39;39.74
67109;BME280;54027;50.786;7.058;2023-04-27T11:00:59;101039.47;;;15.27;38.26
67109;BME280;54027;50.786;7.058;2023-04-27T11:03:25;101042.78;;;15.33;38.72
67109;BME280;54027;50.786;7.058;2023-04-27T11:06:01;101069.50;;;15.03;40.04
67109;BME280;54027;50.786;7.058;2023-04-27T11:08:28;101060.47;;;15.19;39.31
67109;BME280;54027;50.786;7.058;2023-04-27T11:10:55;101065.13;;;15.43;39.36
67109;BME280;54027;50.786;7.058;2023-04-27T11:13:25;101047.53;;;15.16;38.38
67109;BME280;54027;50.786;7.058;2023-04-27T11:15:57;101064.75;;;14.82;39.98
67109;BME280;54027;50.786;7.058;2023-04-27T11:18:24;101048.19;;;14.86;38.80
67109;BME280;54027;50.786;7.058;2023-04-27T11:21:05;101062.88;;;14.90;40.59
67109;BME280;54027;50.786;7.058;2023-04-27T11:23:34;101040.75;;;15.09;38.42
67109;BME280;54027;50.786;7.058;2023-04-27T11:26:16;101031.94;;;15.14;38.56
67109;BME280;54027;50.786;7.058;2023-04-27T11:31:21;101024.56;;;15.32;38.17
67109;BME280;54027;50.786;7.058;2023-04-27T11:33:48;101027.66;;;15.49;38.68
67109;BME280;54027;50.786;7.058;2023-04-27T11:36:18;101029.47;;;15.81;38.25
67109;BME280;54027;50.786;7.058;2023-04-27T11:38:44;101031.59;;;15.66;39.10
67109;BME280;54027;50.786;7.058;2023-04-27T11:41:09;101055.66;;;16.10;39.71
67109;BME280;54027;50.786;7.058;2023-04-27T11:43:39;101050.41;;;16.42;39.69
67109;BME280;54027;50.786;7.058;2023-04-27T11:46:06;101038.84;;;16.52;38.89
67109;BME280;54027;50.786;7.058;2023-04-27T11:48:38;101029.63;;;16.08;38.96
67109;BME280;54027;50.786;7.058;2023-04-27T11:51:04;101028.72;;;16.09;39.12
67109;BME280;54027;50.786;7.058;2023-04-27T11:53:37;101032.78;;;15.87;39.29
67109;BME280;54027;50.786;7.058;2023-04-27T11:56:08;101043.59;;;15.72;39.98
67109;BME280;54027;50.786;7.058;2023-04-27T11:58:36;101022.22;;;15.92;39.21
67109;BME280;54027;50.786;7.058;2023-04-27T12:01:05;101030.91;;;15.92;39.40
67109;BME280;54027;50.786;7.058;2023-04-27T12:03:31;101008.69;;;16.11;38.36
67109;BME280;54027;50.786;7.058;2023-04-27T12:05:57;101038.81;;;16.21;40.56
67109;BME280;54027;50.786;7.058;2023-04-27T12:08:22;101021.81;;;16.39;38.73
67109;BME280;54027;50.786;7.058;2023-04-27T12:10:48;100991.19;;;16.75;38.19
67109;BME280;54027;50.786;7.058;2023-04-27T12:13:14;100986.50;;;16.86;37.03
67109;BME280;54027;50.786;7.058;2023-04-27T12:15:40;100998.72;;;16.85;37.60
67109;BME280;54027;50.786;7.058;2023-04-27T12:18:06;100977.75;;;16.89;36.80
67109;BME280;54027;50.786;7.058;2023-04-27T12:20:33;100976.31;;;16.78;36.24
67109;BME280;54027;50.786;7.058;2023-04-27T12:22:59;100970.47;;;16.98;36.97
67109;BME280;54027;50.786;7.058;2023-04-27T12:25:25;100987.22;;;17.19;37.71
67109;BME280;54027;50.786;7.058;2023-04-27T12:27:50;100979.19;;;17.25;36.50
67109;BME280;54027;50.786;7.058;2023-04-27T12:30:16;100970.81;;;17.15;36.15
67109;BME280;54027;50.786;7.058;2023-04-27T12:32:41;100978.19;;;17.29;36.38
67109;BME280;54027;50.786;7.058;2023-04-27T12:35:09;100975.28;;;17.12;36.50
67109;BME280;54027;50.786;7.058;2023-04-27T12:37:35;100965.16;;;17.01;36.48
67109;BME280;54027;50.786;7.058;2023-04-27T12:40:02;100984.22;;;16.75;37.26
67109;BME280;54027;50.786;7.058;2023-04-27T12:42:31;100990.69;;;16.62;37.23
67109;BME280;54027;50.786;7.058;2023-04-27T12:44:57;100995.97;;;16.61;37.64
67109;BME280;54027;50.786;7.058;2023-04-27T12:47:22;100992.84;;;16.79;37.64
67109;BME280;54027;50.786;7.058;2023-04-27T12:49:48;100989.59;;;16.99;37.54
67109;BME280;54027;50.786;7.058;2023-04-27T12:52:13;100990.41;;;17.28;37.30
67109;BME280;54027;50.786;7.058;2023-04-27T12:54:39;100999.72;;;16.81;37.35
67109;BME280;54027;50.786;7.058;2023-04-27T12:57:04;101002.03;;;16.61;37.92
67109;BME280;54027;50.786;7.058;2023-04-27T12:59:33;100979.88;;;16.74;36.79
67109;BME280;54027;50.786;7.058;2023-04-27T13:02:02;100987.56;;;16.80;37.17
67109;BME280;54027;50.786;7.058;2023-04-27T13:04:29;100989.09;;;16.58;37.69
67109;BME280;54027;50.786;7.058;2023-04-27T13:06:56;100987.09;;;16.66;36.82
67109;BME280;54027;50.786;7.058;2023-04-27T13:09:24;100996.66;;;16.97;37.26
67109;BME280;54027;50.786;7.058;2023-04-27T13:11:49;100977.69;;;17.18;37.01
67109;BME280;54027;50.786;7.058;2023-04-27T13:14:16;100997.03;;;17.38;37.32
67109;BME280;54027;50.786;7.058;2023-04-27T13:16:42;100973.03;;;17.00;36.00
67109;BME280;54027;50.786;7.058;2023-04-27T13:19:07;100985.63;;;17.15;37.03
67109;BME280;54027;50.786;7.058;2023-04-27T13:21:33;100991.31;;;17.54;37.05
67109;BME280;54027;50.786;7.058;2023-04-27T13:23:58;101003.53;;;17.53;37.96
67109;BME280;54027;50.786;7.058;2023-04-27T13:26:24;100972.88;;;17.83;36.61
67109;BME280;54027;50.786;7.058;2023-04-27T13:28:49;100969.47;;;18.06;36.93
67109;BME280;54027;50.786;7.058;2023-04-27T13:31:14;100978.34;;;17.51;36.88
67109;BME280;54027;50.786;7.058;2023-04-27T13:33:41;100985.91;;;17.58;36.93
67109;BME280;54027;50.786;7.058;2023-04-27T13:36:08;100973.16;;;17.23;35.91
67109;BME280;54027;50.786;7.058;2023-04-27T13:38:34;100972.69;;;17.36;36.87
67109;BME280;54027;50.786;7.058;2023-04-27T13:41:00;100976.34;;;17.05;36.86
67109;BME280;54027;50.786;7.058;2023-04-27T13:43:25;100995.59;;;16.73;37.95
67109;BME280;54027;50.786;7.058;2023-04-27T13:45:51;100983.50;;;16.70;37.13
67109;BME280;54027;50.786;7.058;2023-04-27T13:48:19;100978.69;;;16.86;36.73
67109;BME280;54027;50.786;7.058;2023-04-27T13:50:45;100987.72;;;17.04;37.41
67109;BME280;54027;50.786;7.058;2023-04-27T13:53:11;100975.00;;;17.19;36.68
67109;BME280;54027;50.786;7.058;2023-04-27T13:55:36;100943.97;;;17.36;35.35
67109;BME280;54027;50.786;7.058;2023-04-27T13:58:02;100959.03;;;17.28;36.42
67109;BME280;54027;50.786;7.058;2023-04-27T14:00:27;100945.69;;;17.11;35.90
67109;BME280;54027;50.786;7.058;2023-04-27T14:02:57;100936.75;;;17.18;35.35
67109;BME280;54027;50.786;7.058;2023-04-27T14:05:23;100946.91;;;17.27;35.86
67109;BME280;54027;50.786;7.058;2023-04-27T14:07:48;100918.50;;;17.17;34.73